createdAt,value
2022-12-03T00:00:34.055Z,52.10
2022-12-03T00:03:29.236Z,52.10
2022-12-03T00:06:22.017Z,52.10
2022-12-03T00:09:14.988Z,52.10
2022-12-03T00:12:08.252Z,52.10
2022-12-03T00:15:01.373Z,52.20
2022-12-03T00:17:54.270Z,52.10
2022-12-03T00:20:48.645Z,52.10
2022-12-03T00:23:42.647Z,52.10
2022-12-03T00:26:36.011Z,52.10
2022-12-03T00:29:29.193Z,52.10
2022-12-03T00:32:22.562Z,52.10
2022-12-03T00:35:16.286Z,52.10
2022-12-03T00:38:10.386Z,52.10
2022-12-03T00:41:03.148Z,52.70
2022-12-03T00:43:57.633Z,52.10
2022-12-03T00:46:51.612Z,52.10
2022-12-03T00:49:44.926Z,52.10
2022-12-03T00:52:38.331Z,52.10
2022-12-03T00:55:32.571Z,52.10
2022-12-03T00:58:26.208Z,52.10
2022-12-03T01:01:18.985Z,52.10
2022-12-03T01:04:11.891Z,52.10
2022-12-03T01:07:05.286Z,52.10
2022-12-03T01:09:58.486Z,52.10
2022-12-03T01:12:52.764Z,52.10
2022-12-03T01:15:46.297Z,52.10
2022-12-03T01:18:39.406Z,52.10
2022-12-03T01:21:32.217Z,52.10
2022-12-03T01:24:25.418Z,52.10
2022-12-03T01:27:18.420Z,52.10
2022-12-03T01:30:14.745Z,52.10
2022-12-03T01:33:07.332Z,52.10
2022-12-03T01:36:00.227Z,52.10
2022-12-03T01:38:52.941Z,52.70
2022-12-03T01:41:47.054Z,52.10
2022-12-03T01:44:41.969Z,52.10
2022-12-03T01:47:38.012Z,52.10
2022-12-03T01:50:34.146Z,52.70
2022-12-03T01:53:27.274Z,52.00
2022-12-03T01:56:20.383Z,52.00
2022-12-03T01:59:16.610Z,52.10
2022-12-03T02:02:14.210Z,52.10
2022-12-03T02:05:17.988Z,52.00
2022-12-03T02:08:33.620Z,52.00
2022-12-03T02:11:31.895Z,52.00
2022-12-03T02:14:25.356Z,52.00
2022-12-03T02:17:18.523Z,52.00
2022-12-03T02:20:14.490Z,52.00
2022-12-03T02:23:13.318Z,52.00
2022-12-03T02:26:07.486Z,52.00
2022-12-03T02:29:00.484Z,52.00
2022-12-03T02:31:53.444Z,52.00
2022-12-03T02:34:48.260Z,52.00
2022-12-03T02:37:42.165Z,52.00
2022-12-03T02:40:35.401Z,52.00
2022-12-03T02:43:29.908Z,52.00
2022-12-03T02:46:23.348Z,52.00
2022-12-03T02:49:16.682Z,52.00
2022-12-03T02:52:10.375Z,52.00
2022-12-03T02:55:04.490Z,52.00
2022-12-03T02:57:57.888Z,52.00
2022-12-03T03:00:54.121Z,52.00
2022-12-03T03:03:48.959Z,52.00
2022-12-03T03:06:42.411Z,52.00
2022-12-03T03:09:36.375Z,52.00
2022-12-03T03:12:29.236Z,51.90
2022-12-03T03:15:22.821Z,51.90
2022-12-03T03:18:18.403Z,51.90
2022-12-03T03:21:10.972Z,52.00
2022-12-03T03:24:04.590Z,51.90
2022-12-03T03:26:58.279Z,51.90
2022-12-03T03:29:51.966Z,51.90
2022-12-03T03:32:45.287Z,51.90
2022-12-03T03:35:40.482Z,51.90
2022-12-03T03:38:33.620Z,51.90
2022-12-03T03:41:28.771Z,51.90
2022-12-03T03:44:22.370Z,52.00
2022-12-03T03:47:16.000Z,51.90
2022-12-03T03:50:12.947Z,51.90
2022-12-03T03:53:07.983Z,51.90
2022-12-03T03:56:01.554Z,51.90
2022-12-03T03:58:54.287Z,51.90
2022-12-03T04:01:48.006Z,51.90
2022-12-03T04:04:41.342Z,51.90
2022-12-03T04:07:34.393Z,51.90
2022-12-03T04:10:46.384Z,51.90
2022-12-03T04:13:39.539Z,51.90
2022-12-03T04:16:32.561Z,51.90
2022-12-03T04:19:25.582Z,51.90
2022-12-03T04:22:35.581Z,51.90
2022-12-03T04:25:47.092Z,51.90
2022-12-03T04:28:51.576Z,51.90
2022-12-03T04:32:10.614Z,51.90
2022-12-03T04:35:20.676Z,51.90
2022-12-03T04:38:16.544Z,51.90
2022-12-03T04:41:10.626Z,51.90
2022-12-03T04:44:29.420Z,51.90
2022-12-03T04:47:23.523Z,51.90
2022-12-03T04:50:16.477Z,51.90
2022-12-03T04:53:09.522Z,51.90
2022-12-03T04:56:02.163Z,51.90
2022-12-03T04:58:56.633Z,51.90
2022-12-03T05:01:49.226Z,51.90
2022-12-03T05:04:42.048Z,51.90
2022-12-03T05:07:35.661Z,51.90
2022-12-03T05:10:29.188Z,51.90
2022-12-03T05:13:22.153Z,51.90
2022-12-03T05:16:16.709Z,51.90
2022-12-03T05:19:10.425Z,51.90
2022-12-03T05:22:02.110Z,51.90
2022-12-03T05:24:55.866Z,51.90
2022-12-03T05:27:49.430Z,51.90
2022-12-03T05:30:43.197Z,51.90
2022-12-03T05:33:42.559Z,51.90
2022-12-03T05:36:37.172Z,51.90
2022-12-03T05:39:30.285Z,51.90
2022-12-03T05:42:40.904Z,51.90
2022-12-03T05:45:36.426Z,51.90
2022-12-03T05:48:29.630Z,51.90
2022-12-03T05:51:23.784Z,51.90
2022-12-03T05:54:17.523Z,51.90
2022-12-03T05:57:10.349Z,51.90
2022-12-03T06:00:03.332Z,51.90
2022-12-03T06:02:56.613Z,51.90
2022-12-03T06:05:50.991Z,51.90
2022-12-03T06:08:45.682Z,51.90
2022-12-03T06:11:39.783Z,51.90
2022-12-03T06:14:34.643Z,51.90
2022-12-03T06:17:27.462Z,51.90
2022-12-03T06:20:21.627Z,51.90
2022-12-03T06:23:14.652Z,51.90
2022-12-03T06:26:08.741Z,51.90
2022-12-03T06:29:02.851Z,51.90
2022-12-03T06:31:56.605Z,51.90
2022-12-03T06:34:49.706Z,51.90
2022-12-03T06:37:42.491Z,51.90
2022-12-03T06:40:35.591Z,51.90
2022-12-03T06:43:30.830Z,51.80
2022-12-03T06:46:24.369Z,51.80
2022-12-03T06:49:17.435Z,51.90
2022-12-03T06:52:10.342Z,51.90
2022-12-03T06:55:03.779Z,51.90
2022-12-03T06:57:57.717Z,51.90
2022-12-03T07:00:51.897Z,51.80
2022-12-03T07:03:45.530Z,51.90
2022-12-03T07:06:38.446Z,51.80
2022-12-03T07:09:31.514Z,51.90
2022-12-03T07:12:24.457Z,51.80
2022-12-03T07:15:17.863Z,51.80
2022-12-03T07:18:12.619Z,51.80
2022-12-03T07:21:06.049Z,51.80
2022-12-03T07:23:59.473Z,51.80
2022-12-03T07:26:52.753Z,51.90
2022-12-03T07:29:45.451Z,51.90
2022-12-03T07:32:38.384Z,51.80
2022-12-03T07:35:32.791Z,51.80
2022-12-03T07:38:26.427Z,51.90
2022-12-03T07:41:19.490Z,51.80
2022-12-03T07:44:14.706Z,51.90
2022-12-03T07:47:08.450Z,51.80
2022-12-03T07:50:01.411Z,51.80
2022-12-03T07:52:55.743Z,51.90
2022-12-03T07:55:48.609Z,51.90
2022-12-03T07:58:41.445Z,51.90
2022-12-03T08:01:34.943Z,51.90
2022-12-03T08:04:28.137Z,51.90
2022-12-03T08:07:21.716Z,51.80
2022-12-03T08:10:15.810Z,51.90
2022-12-03T08:13:14.572Z,52.50
2022-12-03T08:16:16.707Z,51.90
2022-12-03T08:19:11.908Z,51.90
2022-12-03T08:22:12.672Z,51.90
2022-12-03T08:25:08.314Z,51.90
2022-12-03T08:28:08.938Z,51.90
2022-12-03T08:31:08.343Z,51.90
2022-12-03T08:34:18.719Z,51.80
2022-12-03T08:37:17.412Z,51.90
2022-12-03T08:40:28.866Z,51.80
2022-12-03T08:43:26.060Z,51.90
2022-12-03T08:46:20.431Z,51.80
2022-12-03T08:49:14.670Z,51.90
2022-12-03T08:52:15.667Z,51.80
2022-12-03T08:55:33.513Z,51.80
2022-12-03T08:58:34.246Z,51.80
2022-12-03T09:01:38.565Z,51.80
2022-12-03T09:04:36.982Z,51.80
2022-12-03T09:07:30.615Z,51.80
2022-12-03T09:10:23.467Z,51.80
2022-12-03T09:13:16.359Z,51.80
2022-12-03T09:16:11.061Z,51.80
2022-12-03T09:19:04.663Z,51.90
2022-12-03T09:21:57.980Z,51.80
2022-12-03T09:24:52.123Z,51.80
2022-12-03T09:27:45.206Z,51.80
2022-12-03T09:30:38.847Z,51.80
2022-12-03T09:33:33.282Z,51.80
2022-12-03T09:36:26.387Z,51.80
2022-12-03T09:39:19.679Z,51.90
2022-12-03T09:42:13.017Z,51.80
2022-12-03T09:45:12.164Z,51.80
2022-12-03T09:48:06.569Z,51.80
2022-12-03T09:51:00.998Z,51.80
2022-12-03T09:53:54.768Z,51.80
2022-12-03T09:56:47.558Z,51.80
2022-12-03T09:59:40.951Z,51.80
2022-12-03T10:02:34.426Z,51.90
2022-12-03T10:05:29.625Z,51.80
2022-12-03T10:08:29.388Z,51.80
2022-12-03T10:11:27.107Z,51.80
2022-12-03T10:14:21.484Z,51.70
2022-12-03T10:17:14.574Z,51.70
2022-12-03T10:20:08.748Z,51.70
2022-12-03T10:23:01.378Z,51.70
2022-12-03T10:25:58.001Z,51.70
2022-12-03T10:28:53.139Z,51.70
2022-12-03T10:31:47.015Z,51.70
2022-12-03T10:34:43.023Z,51.70
2022-12-03T10:37:36.536Z,51.70
2022-12-03T10:40:31.479Z,51.70
2022-12-03T10:43:26.659Z,51.70
2022-12-03T10:46:21.397Z,51.70
2022-12-03T10:49:18.132Z,51.80
2022-12-03T10:52:26.002Z,51.80
2022-12-03T10:55:19.718Z,51.80
2022-12-03T10:58:20.124Z,51.70
2022-12-03T11:01:18.335Z,51.70
2022-12-03T11:04:22.149Z,51.70
2022-12-03T11:07:17.057Z,51.70
2022-12-03T11:10:15.368Z,51.70
2022-12-03T11:13:44.102Z,51.70
2022-12-03T11:17:08.962Z,51.70
2022-12-03T11:20:03.828Z,51.70
2022-12-03T11:22:57.904Z,51.80
2022-12-03T11:25:51.339Z,51.70
2022-12-03T11:28:55.572Z,51.70
2022-12-03T11:31:49.323Z,51.70
2022-12-03T11:34:43.058Z,51.70
2022-12-03T11:37:37.758Z,51.70
2022-12-03T11:40:34.759Z,51.70
2022-12-03T11:44:02.094Z,51.70
2022-12-03T11:46:56.747Z,52.40
2022-12-03T11:49:50.341Z,51.70
2022-12-03T11:52:47.510Z,51.70
2022-12-03T11:55:44.170Z,51.70
2022-12-03T11:58:39.738Z,51.70
2022-12-03T12:01:39.131Z,51.70
2022-12-03T12:04:35.510Z,51.70
2022-12-03T12:07:35.615Z,51.70
2022-12-03T12:10:47.602Z,51.70
2022-12-03T12:13:56.550Z,51.70
2022-12-03T12:16:51.473Z,51.70
2022-12-03T12:19:47.328Z,51.70
2022-12-03T12:22:43.061Z,51.70
2022-12-03T12:25:41.560Z,51.70
2022-12-03T12:28:35.973Z,51.70
2022-12-03T12:31:28.747Z,51.70
2022-12-03T12:34:21.964Z,51.70
2022-12-03T12:37:19.997Z,51.70
2022-12-03T12:40:16.252Z,51.70
2022-12-03T12:43:24.118Z,51.70
2022-12-03T12:46:46.615Z,51.70
2022-12-03T12:49:32.765Z,51.70
2022-12-03T12:52:26.423Z,51.70
2022-12-03T12:55:20.682Z,51.70
2022-12-03T12:58:18.512Z,51.70
2022-12-03T13:01:17.901Z,51.70
2022-12-03T13:04:14.134Z,51.70
2022-12-03T13:07:09.596Z,51.70
2022-12-03T13:10:35.217Z,51.70
2022-12-03T13:13:41.626Z,51.70
2022-12-03T13:16:36.807Z,51.70
2022-12-03T13:19:43.582Z,51.70
2022-12-03T13:22:40.656Z,51.70
2022-12-03T13:26:00.233Z,51.70
2022-12-03T13:28:52.305Z,51.70
2022-12-03T13:31:52.717Z,51.70
2022-12-03T13:34:48.074Z,51.70
2022-12-03T13:37:42.015Z,51.70
2022-12-03T13:40:35.802Z,51.70
2022-12-03T13:43:32.923Z,51.70
2022-12-03T13:46:25.768Z,51.70
2022-12-03T13:49:22.046Z,51.70
2022-12-03T13:52:21.727Z,51.70
2022-12-03T13:55:28.152Z,51.70
2022-12-03T13:58:21.890Z,51.70
2022-12-03T14:01:14.714Z,51.70
2022-12-03T14:04:22.496Z,51.70
2022-12-03T14:07:17.415Z,51.70
2022-12-03T14:10:12.857Z,51.80
2022-12-03T14:13:05.516Z,51.70
2022-12-03T14:15:58.944Z,51.80
2022-12-03T14:18:51.754Z,51.70
2022-12-03T14:21:44.741Z,51.80
2022-12-03T14:24:39.812Z,51.70
2022-12-03T14:27:33.113Z,51.80
2022-12-03T14:30:26.738Z,51.80
2022-12-03T14:33:20.062Z,51.80
2022-12-03T14:36:12.740Z,51.70
2022-12-03T14:39:05.991Z,51.70
2022-12-03T14:42:14.967Z,51.80
2022-12-03T14:45:09.472Z,51.80
2022-12-03T14:48:02.621Z,51.70
2022-12-03T14:50:55.999Z,51.70
2022-12-03T14:53:48.863Z,51.80
2022-12-03T14:56:41.606Z,51.70
2022-12-03T14:59:36.097Z,51.80
2022-12-03T15:02:30.371Z,51.80
2022-12-03T15:05:28.597Z,51.80
2022-12-03T15:08:23.413Z,51.80
2022-12-03T15:11:16.575Z,51.80
2022-12-03T15:14:10.194Z,51.80
2022-12-03T15:17:05.060Z,51.80
2022-12-03T15:19:58.011Z,51.70
2022-12-03T15:22:50.901Z,51.80
2022-12-03T15:25:44.310Z,51.80
2022-12-03T15:28:37.817Z,51.80
2022-12-03T15:31:31.269Z,51.80
2022-12-03T15:34:25.935Z,52.40
2022-12-03T15:37:18.967Z,51.80
2022-12-03T15:40:14.857Z,51.80
2022-12-03T15:43:08.445Z,51.80
2022-12-03T15:46:01.866Z,51.80
2022-12-03T15:48:55.268Z,51.80
2022-12-03T15:51:50.247Z,51.80
2022-12-03T15:54:44.160Z,51.80
2022-12-03T15:57:37.912Z,51.80
2022-12-03T16:00:30.913Z,51.90
2022-12-03T16:03:23.862Z,51.70
2022-12-03T16:06:18.198Z,51.80
2022-12-03T16:09:12.789Z,51.80
2022-12-03T16:12:06.029Z,51.80
2022-12-03T16:14:58.823Z,51.80
2022-12-03T16:17:51.834Z,51.80
2022-12-03T16:20:45.045Z,51.80
2022-12-03T16:23:37.991Z,51.80
2022-12-03T16:26:32.231Z,51.70
2022-12-03T16:29:26.090Z,51.80
2022-12-03T16:32:20.259Z,51.80
2022-12-03T16:35:13.648Z,51.80
2022-12-03T16:38:07.140Z,51.80
2022-12-03T16:41:01.161Z,51.70
2022-12-03T16:43:54.822Z,51.80
2022-12-03T16:46:47.995Z,51.80
2022-12-03T16:49:40.797Z,51.70
2022-12-03T16:52:34.090Z,51.80
2022-12-03T16:55:26.847Z,51.80
2022-12-03T16:58:21.363Z,51.80
2022-12-03T17:01:15.970Z,52.40
2022-12-03T17:04:09.416Z,51.80
2022-12-03T17:07:02.946Z,51.80
2022-12-03T17:09:56.209Z,51.80
2022-12-03T17:16:02.949Z,51.70
2022-12-03T17:18:57.205Z,51.80
2022-12-03T17:21:49.934Z,51.80
2022-12-03T17:24:43.026Z,51.80
2022-12-03T17:27:38.686Z,51.80
2022-12-03T17:30:36.910Z,51.80
2022-12-03T17:33:30.038Z,51.80
2022-12-03T17:36:24.313Z,51.80
2022-12-03T17:39:18.395Z,51.80
2022-12-03T17:42:11.683Z,51.80
2022-12-03T17:45:06.369Z,51.80
2022-12-03T17:47:59.670Z,51.80
2022-12-03T17:50:55.245Z,51.80
2022-12-03T17:53:50.571Z,51.80
2022-12-03T17:56:44.333Z,51.80
2022-12-03T17:59:37.570Z,51.80
2022-12-03T18:02:30.711Z,51.80
2022-12-03T18:05:24.174Z,51.80
2022-12-03T18:08:16.906Z,51.80
2022-12-03T18:11:11.111Z,51.80
2022-12-03T18:14:03.792Z,51.80
2022-12-03T18:16:56.996Z,51.80
2022-12-03T18:19:50.091Z,52.30
2022-12-03T18:22:42.821Z,52.00
2022-12-03T18:25:35.982Z,51.90
2022-12-03T18:28:31.184Z,51.80
2022-12-03T18:31:24.294Z,51.80
2022-12-03T18:34:17.682Z,51.80
2022-12-03T18:37:12.236Z,51.80
2022-12-03T18:40:12.764Z,51.80
2022-12-03T18:43:11.915Z,51.90
2022-12-03T18:46:31.098Z,51.90
2022-12-03T18:49:25.294Z,51.80
2022-12-03T18:52:20.746Z,51.80
2022-12-03T18:55:18.751Z,51.80
2022-12-03T18:58:12.326Z,51.90
2022-12-03T19:01:11.633Z,51.90
2022-12-03T19:04:05.193Z,51.90
2022-12-03T19:06:58.191Z,51.90
2022-12-03T19:09:50.545Z,52.00
2022-12-03T19:12:44.243Z,52.00
2022-12-03T19:15:37.962Z,52.00
2022-12-03T19:18:32.518Z,52.10
2022-12-03T19:21:29.496Z,52.10
2022-12-03T19:24:27.431Z,52.20
2022-12-03T19:27:20.995Z,52.20
2022-12-03T19:30:14.945Z,52.20
2022-12-03T19:33:08.070Z,52.20
2022-12-03T19:36:04.795Z,52.20
2022-12-03T19:39:01.442Z,52.20
2022-12-03T19:41:55.065Z,52.20
2022-12-03T19:44:48.151Z,52.30
2022-12-03T19:47:41.198Z,52.30
2022-12-03T19:50:34.185Z,52.30
2022-12-03T19:53:29.537Z,52.30
2022-12-03T19:56:23.520Z,52.40
2022-12-03T19:59:17.037Z,52.40
2022-12-03T20:02:10.994Z,53.00
2022-12-03T20:05:04.110Z,52.40
2022-12-03T20:07:57.092Z,52.40
2022-12-03T20:10:51.372Z,52.40
2022-12-03T20:13:46.042Z,52.40
2022-12-03T20:16:39.061Z,52.40
2022-12-03T20:19:31.910Z,52.70
2022-12-03T20:22:25.184Z,53.00
2022-12-03T20:25:18.086Z,52.90
2022-12-03T20:28:12.544Z,52.90
2022-12-03T20:31:09.560Z,52.90
2022-12-03T20:34:04.661Z,52.90
2022-12-03T20:36:57.987Z,52.80
2022-12-03T20:39:51.639Z,52.80
2022-12-03T20:42:48.490Z,52.90
2022-12-03T20:45:43.491Z,52.80
2022-12-03T20:48:37.473Z,52.80
2022-12-03T20:51:32.097Z,52.80
2022-12-03T20:54:25.022Z,52.80
2022-12-03T20:57:17.987Z,52.80
2022-12-03T21:00:12.077Z,52.80
2022-12-03T21:03:06.723Z,52.80
2022-12-03T21:06:01.421Z,52.80
2022-12-03T21:08:56.152Z,52.90
2022-12-03T21:11:48.850Z,52.80
2022-12-03T21:14:42.046Z,52.80
2022-12-03T21:17:35.352Z,52.80
2022-12-03T21:20:30.361Z,52.80
2022-12-03T21:23:23.079Z,53.10
2022-12-03T21:26:17.902Z,53.20
2022-12-03T21:29:11.403Z,53.20
2022-12-03T21:32:05.269Z,53.90
2022-12-03T21:34:58.112Z,53.20
2022-12-03T21:37:53.255Z,53.80
2022-12-03T21:40:46.135Z,53.20
2022-12-03T21:43:39.681Z,53.20
2022-12-03T21:47:10.361Z,53.20
2022-12-03T21:49:46.291Z,53.20
2022-12-03T21:52:38.890Z,53.20
2022-12-03T21:55:33.644Z,53.20
2022-12-03T21:58:27.398Z,53.20
2022-12-03T22:01:23.260Z,53.20
2022-12-03T22:04:16.044Z,53.20
2022-12-03T22:07:09.398Z,53.20
2022-12-03T22:10:02.395Z,53.20
2022-12-03T22:12:56.123Z,53.20
2022-12-03T22:15:49.119Z,53.30
2022-12-03T22:18:42.273Z,53.30
2022-12-03T22:21:38.306Z,53.30
2022-12-03T22:24:31.336Z,53.30
2022-12-03T22:27:23.833Z,53.40
2022-12-03T22:30:18.798Z,53.40
2022-12-03T22:33:12.094Z,53.40
2022-12-03T22:36:07.291Z,53.40
2022-12-03T22:38:59.907Z,53.40
2022-12-03T22:41:53.371Z,53.40
2022-12-03T22:44:46.363Z,53.40
2022-12-03T22:47:40.597Z,53.40
2022-12-03T22:50:34.281Z,53.50
2022-12-03T22:53:27.469Z,53.40
2022-12-03T22:56:22.260Z,53.50
2022-12-03T22:59:15.216Z,53.50
2022-12-03T23:02:08.112Z,53.50
2022-12-03T23:05:02.579Z,53.50
2022-12-03T23:07:56.395Z,53.50
2022-12-03T23:10:51.810Z,53.50
2022-12-03T23:13:45.472Z,53.60
2022-12-03T23:16:39.964Z,53.50
2022-12-03T23:19:33.416Z,54.20
2022-12-03T23:22:27.285Z,53.60
2022-12-03T23:25:20.470Z,53.70
2022-12-03T23:28:13.002Z,53.70
2022-12-03T23:31:07.289Z,53.70
2022-12-03T23:34:01.741Z,53.80
2022-12-03T23:36:55.096Z,53.80
2022-12-03T23:39:50.471Z,53.80
2022-12-03T23:42:42.923Z,53.90
2022-12-03T23:45:36.563Z,54.00
2022-12-03T23:48:30.005Z,54.10
2022-12-03T23:51:25.068Z,54.10
2022-12-03T23:54:18.369Z,54.10
2022-12-03T23:57:13.515Z,54.10
